Pintail — WDF5177 — position and weather

sailwx.info

Track history (hours):
 
Tides and Currents Weather Stations Pressure Air Temp Water Temp Dewpoint Dewpoint Depression Visibility Wind Speed Wind Dir Waves Ship Positions

Pintail

Owner: Pintail Marine Services, Inc, Friday Harbor, WA. More information available from US FCC via Universal Licensing System and Coast Guard Vessel Documentation Center.

Last reported at 2014-Nov-22 23:33 UTC. Time now 2014-Nov-22 23:49 UTC.
Position N 48°32' W 122°60'.

Length 19 m.

Type: Towing. MMSI: 367460260.

Date/timePositionNaut miles runAvg speedWind from/ knotsBaromVisibWave heightAir tempDewpointWater temp
2014-Nov-22 23:33N 48°32' W 122°60'0 0.0
2014-Nov-22 22:30N 48°32' W 122°60'0 0.0
2014-Nov-22 21:30N 48°32' W 122°60'0 0.0
2014-Nov-22 20:33N 48°32' W 122°60'0 0.0
2014-Nov-22 19:33N 48°32' W 122°60'0 0.0
2014-Nov-22 18:33N 48°32' W 122°60'0 0.0
2014-Nov-22 17:30N 48°32' W 122°60'0 0.0
2014-Nov-22 16:30N 48°32' W 122°60'0 0.0
2014-Nov-22 15:30N 48°32' W 122°60'0 0.0
2014-Nov-22 14:33N 48°32' W 122°60'0 0.0
2014-Nov-22 13:27N 48°32' W 122°60'0 0.0
2014-Nov-22 12:33N 48°32' W 122°60'0 0.0
2014-Nov-22 11:24N 48°32' W 122°60'0 0.0
2014-Nov-22 10:33N 48°32' W 122°60'0 0.0
2014-Nov-22 09:33N 48°32' W 122°60'0 0.0
2014-Nov-22 08:29N 48°32' W 122°60'0 0.0
2014-Nov-22 07:32N 48°32' W 122°60'0 0.0
2014-Nov-22 06:32N 48°32' W 122°60'0 0.0
2014-Nov-22 05:32N 48°32' W 122°60'0 0.0
2014-Nov-22 04:32N 48°32' W 122°60'0 0.0
2014-Nov-22 03:32N 48°32' W 122°60'0 0.0
2014-Nov-22 02:31N 48°32' W 122°60'0 0.0
2014-Nov-22 01:28N 48°32' W 122°60'0 0.0
2014-Nov-22 00:31N 48°32' W 122°60'9 2.7
2014-Nov-21 21:19N 48°36' W 123°11'8 2.7
2014-Nov-21 18:30N 48°34' W 123°00'2 2.0
2014-Nov-21 17:33N 48°32' W 122°60'0 0.0
2014-Nov-21 16:30N 48°32' W 122°60'0 0.0
2014-Nov-21 15:33N 48°32' W 122°60'0 0.0
2014-Nov-21 14:33N 48°32' W 122°60'0 0.0
2014-Nov-21 13:33N 48°32' W 122°60'0 0.0
2014-Nov-21 12:33N 48°32' W 122°60'0 0.0
2014-Nov-21 11:33N 48°32' W 122°60'0 0.0
2014-Nov-21 10:33N 48°32' W 122°60'0 0.0
2014-Nov-21 09:33N 48°32' W 122°60'0 0.0
2014-Nov-21 08:30N 48°32' W 122°60'0 0.0
2014-Nov-21 07:30N 48°32' W 122°60'0 0.0
2014-Nov-21 06:33N 48°32' W 122°60'0 0.0
2014-Nov-21 05:30N 48°32' W 122°60'0 0.0
2014-Nov-21 04:33N 48°32' W 122°60'0 0.0
2014-Nov-21 03:33N 48°32' W 122°60'0 0.0
2014-Nov-21 02:33N 48°32' W 122°60'0 0.0
2014-Nov-21 01:33N 48°32' W 122°60'0 0.0
2014-Nov-21 00:33N 48°32' W 122°60'0 0.1
2014-Nov-20 23:33N 48°32' W 123°00'1 0.5
2014-Nov-20 22:33N 48°32' W 123°00'1 0.5
2014-Nov-20 21:33N 48°32' W 123°00'6 5.6
2014-Nov-20 20:32N 48°34' W 122°52'9 6.3
2014-Nov-20 19:04N 48°31' W 122°39'2 3.2
2014-Nov-20 18:29N 48°31' W 122°36'5 3.9
2014-Nov-20 17:12N 48°32' W 122°44'4 6.1
2014-Nov-20 16:32N 48°33' W 122°50'5 5.3
2014-Nov-20 15:33N 48°33' W 122°57'2 1.9
2014-Nov-20 14:33N 48°32' W 122°60'0 0.0
2014-Nov-20 13:30N 48°32' W 122°60'0 0.0
2014-Nov-20 12:33N 48°32' W 122°60'0 0.0
2014-Nov-20 11:33N 48°32' W 122°60'0 0.0
2014-Nov-20 10:33N 48°32' W 122°60'0 0.0
2014-Nov-20 09:33N 48°32' W 122°60'0 0.0
2014-Nov-20 08:33N 48°32' W 122°60'0 0.0
2014-Nov-20 07:33N 48°32' W 122°60'0 0.0
2014-Nov-20 06:33N 48°32' W 122°60'0 0.0
2014-Nov-20 05:33N 48°32' W 122°60'0 0.0
2014-Nov-20 04:33N 48°32' W 122°60'0 0.0
2014-Nov-20 03:33N 48°32' W 122°60'0 0.0
2014-Nov-20 02:33N 48°32' W 122°60'0 0.0
2014-Nov-20 01:33N 48°32' W 122°60'1 1.2
2014-Nov-20 00:33N 48°32' W 122°58'5 5.2
2014-Nov-19 23:33N 48°27' W 122°57'  
Track history (hours):
 
Tides and Currents Weather Stations Pressure Air Temp Water Temp Dewpoint Dewpoint Depression Visibility Wind Speed Wind Dir Waves Ship Positions

Pintail

Owner: Pintail Marine Services, Inc, Friday Harbor, WA. More information available from US FCC via Universal Licensing System and Coast Guard Vessel Documentation Center.

Last reported at 2014-Nov-22 23:33 UTC. Time now 2014-Nov-22 23:49 UTC.
Position N 48°32' W 122°60'.

Length 19 m.

Type: Towing. MMSI: 367460260.

Date/timePositionNaut miles runAvg speedWind from/ knotsBaromVisibWave heightAir tempDewpointWater temp
2014-Nov-22 23:33N 48°32' W 122°60'0 0.0
2014-Nov-22 22:30N 48°32' W 122°60'0 0.0
2014-Nov-22 21:30N 48°32' W 122°60'0 0.0
2014-Nov-22 20:33N 48°32' W 122°60'0 0.0
2014-Nov-22 19:33N 48°32' W 122°60'0 0.0
2014-Nov-22 18:33N 48°32' W 122°60'0 0.0
2014-Nov-22 17:30N 48°32' W 122°60'0 0.0
2014-Nov-22 16:30N 48°32' W 122°60'0 0.0
2014-Nov-22 15:30N 48°32' W 122°60'0 0.0
2014-Nov-22 14:33N 48°32' W 122°60'0 0.0
2014-Nov-22 13:27N 48°32' W 122°60'0 0.0
2014-Nov-22 12:33N 48°32' W 122°60'0 0.0
2014-Nov-22 11:24N 48°32' W 122°60'0 0.0
2014-Nov-22 10:33N 48°32' W 122°60'0 0.0
2014-Nov-22 09:33N 48°32' W 122°60'0 0.0
2014-Nov-22 08:29N 48°32' W 122°60'0 0.0
2014-Nov-22 07:32N 48°32' W 122°60'0 0.0
2014-Nov-22 06:32N 48°32' W 122°60'0 0.0
2014-Nov-22 05:32N 48°32' W 122°60'0 0.0
2014-Nov-22 04:32N 48°32' W 122°60'0 0.0
2014-Nov-22 03:32N 48°32' W 122°60'0 0.0
2014-Nov-22 02:31N 48°32' W 122°60'0 0.0
2014-Nov-22 01:28N 48°32' W 122°60'0 0.0
2014-Nov-22 00:31N 48°32' W 122°60'9 2.7
2014-Nov-21 21:19N 48°36' W 123°11'8 2.7
2014-Nov-21 18:30N 48°34' W 123°00'2 2.0
2014-Nov-21 17:33N 48°32' W 122°60'0 0.0
2014-Nov-21 16:30N 48°32' W 122°60'0 0.0
2014-Nov-21 15:33N 48°32' W 122°60'0 0.0
2014-Nov-21 14:33N 48°32' W 122°60'0 0.0
2014-Nov-21 13:33N 48°32' W 122°60'0 0.0
2014-Nov-21 12:33N 48°32' W 122°60'0 0.0
2014-Nov-21 11:33N 48°32' W 122°60'0 0.0
2014-Nov-21 10:33N 48°32' W 122°60'0 0.0
2014-Nov-21 09:33N 48°32' W 122°60'0 0.0
2014-Nov-21 08:30N 48°32' W 122°60'0 0.0
2014-Nov-21 07:30N 48°32' W 122°60'0 0.0
2014-Nov-21 06:33N 48°32' W 122°60'0 0.0
2014-Nov-21 05:30N 48°32' W 122°60'0 0.0
2014-Nov-21 04:33N 48°32' W 122°60'0 0.0
2014-Nov-21 03:33N 48°32' W 122°60'0 0.0
2014-Nov-21 02:33N 48°32' W 122°60'0 0.0
2014-Nov-21 01:33N 48°32' W 122°60'0 0.0
2014-Nov-21 00:33N 48°32' W 122°60'0 0.1
2014-Nov-20 23:33N 48°32' W 123°00'1 0.5
2014-Nov-20 22:33N 48°32' W 123°00'1 0.5
2014-Nov-20 21:33N 48°32' W 123°00'6 5.6
2014-Nov-20 20:32N 48°34' W 122°52'9 6.3
2014-Nov-20 19:04N 48°31' W 122°39'2 3.2
2014-Nov-20 18:29N 48°31' W 122°36'5 3.9
2014-Nov-20 17:12N 48°32' W 122°44'4 6.1
2014-Nov-20 16:32N 48°33' W 122°50'5 5.3
2014-Nov-20 15:33N 48°33' W 122°57'2 1.9
2014-Nov-20 14:33N 48°32' W 122°60'0 0.0
2014-Nov-20 13:30N 48°32' W 122°60'0 0.0
2014-Nov-20 12:33N 48°32' W 122°60'0 0.0
2014-Nov-20 11:33N 48°32' W 122°60'0 0.0
2014-Nov-20 10:33N 48°32' W 122°60'0 0.0
2014-Nov-20 09:33N 48°32' W 122°60'0 0.0
2014-Nov-20 08:33N 48°32' W 122°60'0 0.0
2014-Nov-20 07:33N 48°32' W 122°60'0 0.0
2014-Nov-20 06:33N 48°32' W 122°60'0 0.0
2014-Nov-20 05:33N 48°32' W 122°60'0 0.0
2014-Nov-20 04:33N 48°32' W 122°60'0 0.0
2014-Nov-20 03:33N 48°32' W 122°60'0 0.0
2014-Nov-20 02:33N 48°32' W 122°60'0 0.0
2014-Nov-20 01:33N 48°32' W 122°60'1 1.2
2014-Nov-20 00:33N 48°32' W 122°58'5 5.2
2014-Nov-19 23:33N 48°27' W 122°57'  

Dump ship's entire track history